createdAt,value
2018-08-23T00:01:30.753Z,35.60
2018-08-23T00:04:05.210Z,35.80
2018-08-23T00:06:34.228Z,36.07
2018-08-23T00:09:04.437Z,38.40
2018-08-23T00:11:36.092Z,41.43
2018-08-23T00:14:05.094Z,40.20
2018-08-23T00:16:39.168Z,39.80
2018-08-23T00:19:08.005Z,39.53
2018-08-23T00:21:45.590Z,37.30
2018-08-23T00:24:19.225Z,40.33
2018-08-23T00:26:52.155Z,41.30
2018-08-23T00:29:25.780Z,41.93
2018-08-23T00:32:07.961Z,38.20
2018-08-23T00:34:39.247Z,40.53
2018-08-23T00:37:09.179Z,42.00
2018-08-23T00:39:38.412Z,39.43
2018-08-23T00:42:10.911Z,40.57
2018-08-23T00:44:56.267Z,41.87
2018-08-23T00:47:27.531Z,40.80
2018-08-23T00:49:56.655Z,42.93
2018-08-23T00:52:36.694Z,42.73
2018-08-23T00:55:14.241Z,42.00
2018-08-23T00:57:43.143Z,42.07
2018-08-23T01:00:17.013Z,46.70
2018-08-23T01:02:50.697Z,43.10
2018-08-23T01:05:24.918Z,40.80
2018-08-23T01:07:53.804Z,46.67
2018-08-23T01:10:22.609Z,43.67
2018-08-23T01:12:58.087Z,40.50
2018-08-23T01:15:27.224Z,45.13
2018-08-23T01:18:10.392Z,43.70
2018-08-23T01:20:40.141Z,41.77
2018-08-23T01:23:09.300Z,41.60
2018-08-23T01:25:40.350Z,41.57
2018-08-23T01:28:09.732Z,44.37
2018-08-23T01:30:39.368Z,41.90
2018-08-23T01:33:11.995Z,44.17
2018-08-23T01:35:42.038Z,47.10
2018-08-23T01:38:11.698Z,44.83
2018-08-23T01:40:40.978Z,42.97
2018-08-23T01:43:09.816Z,45.67
2018-08-23T01:45:38.756Z,45.33
2018-08-23T01:48:08.925Z,44.53
2018-08-23T01:50:37.796Z,49.53
2018-08-23T01:53:06.856Z,50.80
2018-08-23T01:55:35.674Z,48.57
2018-08-23T01:58:04.533Z,53.77
2018-08-23T02:00:34.625Z,54.93
2018-08-23T02:03:03.995Z,48.57
2018-08-23T02:05:32.837Z,46.90
2018-08-23T02:08:01.692Z,54.30
2018-08-23T02:10:30.682Z,54.73
2018-08-23T02:12:59.532Z,53.70
2018-08-23T02:15:36.252Z,59.10
2018-08-23T02:18:05.624Z,57.17
2018-08-23T02:20:34.644Z,56.07
2018-08-23T02:23:05.663Z,50.77
2018-08-23T02:25:34.593Z,52.03
2018-08-23T02:28:10.474Z,52.87
2018-08-23T02:30:49.306Z,51.53
2018-08-23T02:33:18.228Z,50.90
2018-08-23T02:36:01.157Z,54.70
2018-08-23T02:38:30.359Z,51.73
2018-08-23T02:40:59.426Z,48.37
2018-08-23T02:43:29.135Z,44.40
2018-08-23T02:45:59.504Z,43.17
2018-08-23T02:48:28.534Z,37.77
2018-08-23T02:50:57.241Z,40.13
2018-08-23T02:53:38.200Z,44.13
2018-08-23T02:56:12.566Z,42.20
2018-08-23T02:58:58.270Z,41.80
2018-08-23T03:01:29.468Z,38.60
2018-08-23T03:04:07.216Z,43.00
2018-08-23T03:06:56.233Z,40.23
2018-08-23T03:09:27.378Z,38.60
2018-08-23T03:11:58.876Z,36.67
2018-08-23T03:14:28.624Z,40.47
2018-08-23T03:17:36.338Z,42.70
2018-08-23T03:20:12.581Z,39.43
2018-08-23T03:22:42.091Z,49.40
2018-08-23T03:25:13.091Z,45.93
2018-08-23T03:27:42.102Z,46.90
2018-08-23T03:30:12.130Z,43.37
2018-08-23T03:32:41.039Z,48.60
2018-08-23T03:35:10.138Z,50.43
2018-08-23T03:37:39.052Z,48.00
2018-08-23T03:40:08.488Z,49.40
2018-08-23T03:42:37.256Z,56.60
2018-08-23T03:45:07.145Z,57.23
2018-08-23T03:47:41.311Z,59.37
2018-08-23T03:50:10.176Z,56.77
2018-08-23T03:52:41.279Z,57.40
2018-08-23T03:55:11.454Z,59.87
2018-08-23T03:57:45.638Z,56.13
2018-08-23T04:00:14.509Z,62.30
2018-08-23T04:02:43.271Z,55.37
2018-08-23T04:05:17.385Z,64.30
2018-08-23T04:07:46.236Z,64.97
2018-08-23T04:10:21.577Z,60.43
2018-08-23T04:12:50.567Z,60.43
2018-08-23T04:15:26.613Z,66.23
2018-08-23T04:17:55.521Z,64.83
2018-08-23T04:20:24.400Z,65.90
2018-08-23T04:22:53.363Z,65.07
2018-08-23T04:25:22.137Z,61.93
2018-08-23T04:27:51.204Z,66.57
2018-08-23T04:30:20.138Z,63.77
2018-08-23T04:32:49.813Z,69.87
2018-08-23T04:35:23.677Z,65.27
2018-08-23T04:37:53.086Z,64.37
2018-08-23T04:40:22.633Z,67.27
2018-08-23T04:42:51.522Z,64.27
2018-08-23T04:45:24.514Z,66.13
2018-08-23T04:48:13.490Z,60.57
2018-08-23T04:50:42.447Z,58.10
2018-08-23T04:53:11.569Z,52.33
2018-08-23T04:55:40.402Z,56.30
2018-08-23T04:58:09.683Z,53.83
2018-08-23T05:00:38.681Z,51.70
2018-08-23T05:03:07.715Z,55.00
2018-08-23T05:05:36.682Z,56.83
2018-08-23T05:08:05.875Z,55.30
2018-08-23T05:10:34.972Z,54.73
2018-08-23T05:13:03.877Z,55.47
2018-08-23T05:15:32.742Z,56.10
2018-08-23T05:18:01.604Z,55.77
2018-08-23T05:20:30.417Z,56.10
2018-08-23T05:23:04.715Z,57.83
2018-08-23T05:25:33.556Z,53.73
2018-08-23T05:28:18.599Z,55.00
2018-08-23T05:30:48.120Z,58.07
2018-08-23T05:33:21.966Z,59.00
2018-08-23T05:35:50.994Z,58.00
2018-08-23T05:38:20.468Z,53.83
2018-08-23T05:40:56.969Z,59.57
2018-08-23T05:43:26.009Z,59.63
2018-08-23T05:45:56.205Z,58.60
2018-08-23T05:48:32.319Z,56.40
2018-08-23T05:51:06.718Z,59.83
2018-08-23T05:53:40.690Z,58.07
2018-08-23T05:56:09.701Z,57.90
2018-08-23T05:58:38.880Z,59.53
2018-08-23T06:01:07.898Z,55.40
2018-08-23T06:03:37.960Z,60.40
2018-08-23T06:06:06.684Z,59.73
2018-08-23T06:08:35.994Z,60.53
2018-08-23T06:11:08.317Z,56.63
2018-08-23T06:13:37.123Z,56.77
2018-08-23T06:16:06.415Z,57.57
2018-08-23T06:18:35.499Z,56.53
2018-08-23T06:21:04.728Z,54.97
2018-08-23T06:24:06.014Z,56.90
2018-08-23T06:26:48.173Z,57.70
2018-08-23T06:29:18.705Z,53.80
2018-08-23T06:32:09.342Z,58.03
2018-08-23T06:34:45.761Z,56.40
2018-08-23T06:37:15.736Z,67.93
2018-08-23T06:39:44.907Z,63.83
2018-08-23T06:42:13.881Z,63.23
2018-08-23T06:44:48.481Z,65.03
2018-08-23T06:47:18.775Z,67.47
2018-08-23T06:49:49.050Z,66.83
2018-08-23T06:52:30.259Z,65.40
2018-08-23T06:54:59.278Z,65.70
2018-08-23T06:57:33.771Z,60.77
2018-08-23T07:00:02.650Z,63.80
2018-08-23T07:02:31.778Z,65.27
2018-08-23T07:05:01.094Z,72.50
2018-08-23T07:07:30.127Z,70.43
2018-08-23T07:09:59.230Z,65.30
2018-08-23T07:12:28.159Z,67.10
2018-08-23T07:14:57.304Z,68.40
2018-08-23T07:17:28.280Z,63.43
2018-08-23T07:20:00.863Z,70.73
2018-08-23T07:22:29.691Z,62.90
2018-08-23T07:24:59.164Z,61.73
2018-08-23T07:27:28.241Z,63.00
2018-08-23T07:29:58.417Z,64.47
2018-08-23T07:32:31.428Z,67.73
2018-08-23T07:35:21.366Z,65.67
2018-08-23T07:37:51.558Z,65.23
2018-08-23T07:40:21.791Z,57.73
2018-08-23T07:42:52.078Z,62.10
2018-08-23T07:45:21.190Z,59.60
2018-08-23T07:47:52.586Z,66.03
2018-08-23T07:50:21.687Z,61.00
2018-08-23T07:52:51.975Z,58.90
2018-08-23T07:55:21.435Z,61.80
2018-08-23T07:57:50.681Z,65.03
2018-08-23T08:00:44.297Z,62.23
2018-08-23T08:03:15.227Z,61.77
2018-08-23T08:05:45.889Z,56.97
2018-08-23T08:08:14.860Z,62.47
2018-08-23T08:10:46.026Z,56.97
2018-08-23T08:13:15.117Z,55.27
2018-08-23T08:15:44.264Z,53.60
2018-08-23T08:18:23.773Z,51.90
2018-08-23T08:21:00.737Z,57.37
2018-08-23T08:23:30.329Z,50.03
2018-08-23T08:25:59.648Z,58.87
2018-08-23T08:28:28.959Z,57.00
2018-08-23T08:31:01.213Z,49.70
2018-08-23T08:33:35.186Z,52.70
2018-08-23T08:36:05.430Z,50.63
2018-08-23T08:38:35.560Z,49.33
2018-08-23T08:41:04.893Z,52.53
2018-08-23T08:43:34.538Z,53.53
2018-08-23T08:46:04.049Z,51.03
2018-08-23T08:48:35.400Z,50.70
2018-08-23T08:51:17.981Z,54.80
2018-08-23T08:53:47.622Z,50.83
2018-08-23T08:56:18.938Z,50.27
2018-08-23T08:58:48.339Z,51.53
2018-08-23T09:01:17.875Z,48.00
2018-08-23T09:03:48.062Z,48.25
2018-08-23T09:06:24.574Z,48.10
2018-08-23T09:08:53.739Z,48.75
2018-08-23T09:11:24.198Z,48.00
2018-08-23T09:13:53.302Z,45.52
2018-08-23T09:16:23.262Z,47.80
2018-08-23T09:18:59.643Z,47.70
2018-08-23T09:21:28.973Z,43.70
2018-08-23T09:24:04.210Z,41.40
2018-08-23T09:26:38.309Z,40.85
2018-08-23T09:29:46.084Z,41.70
2018-08-23T09:32:31.577Z,35.00
2018-08-23T09:35:04.664Z,32.48
2018-08-23T09:37:36.588Z,33.40
2018-08-23T09:40:07.032Z,32.00
2018-08-23T09:42:37.240Z,28.30
2018-08-23T09:45:12.278Z,25.12
2018-08-23T09:47:41.559Z,23.02
2018-08-23T09:50:11.009Z,19.70
2018-08-23T09:52:44.451Z,20.60
2018-08-23T09:55:14.811Z,17.60
2018-08-23T09:57:44.644Z,16.93
2018-08-23T10:00:19.396Z,13.32
2018-08-23T10:02:53.910Z,14.60
2018-08-23T10:05:28.705Z,14.20
2018-08-23T10:08:03.411Z,14.43
2018-08-23T10:10:37.920Z,14.33
2018-08-23T10:13:12.424Z,17.35
2018-08-23T10:15:44.797Z,13.32
2018-08-23T10:18:19.289Z,12.73
2018-08-23T10:20:58.925Z,11.88
2018-08-23T10:23:28.421Z,11.48
2018-08-23T10:25:58.845Z,10.35
2018-08-23T10:28:33.142Z,9.93
2018-08-23T10:31:02.952Z,9.93
2018-08-23T10:33:33.230Z,8.50
2018-08-23T10:36:02.712Z,12.33
2018-08-23T10:38:32.190Z,7.62
2018-08-23T10:41:04.128Z,7.97
2018-08-23T10:43:38.731Z,8.20
2018-08-23T10:46:07.981Z,8.20
2018-08-23T10:48:37.195Z,8.45
2018-08-23T10:51:06.601Z,6.62
2018-08-23T10:53:35.757Z,7.62
2018-08-23T10:56:06.403Z,6.70
2018-08-23T10:58:35.688Z,6.28
2018-08-23T11:01:05.149Z,6.58
2018-08-23T11:03:34.431Z,7.25
2018-08-23T11:06:04.828Z,6.55
2018-08-23T11:08:36.539Z,11.08
2018-08-23T11:11:13.244Z,7.20
2018-08-23T11:13:46.650Z,7.17
2018-08-23T11:16:21.335Z,6.12
2018-08-23T11:18:55.926Z,6.03
2018-08-23T11:21:25.391Z,6.15
2018-08-23T11:23:54.469Z,7.42
2018-08-23T11:26:25.247Z,4.75
2018-08-23T11:28:54.734Z,5.20
2018-08-23T11:31:29.864Z,4.33
2018-08-23T11:33:59.222Z,5.12
2018-08-23T11:36:28.503Z,4.05
2018-08-23T11:38:57.899Z,4.72
2018-08-23T11:41:26.982Z,6.83
2018-08-23T11:43:56.253Z,4.72
2018-08-23T11:46:25.597Z,4.75
2018-08-23T11:48:54.667Z,5.15
2018-08-23T11:51:24.215Z,5.60
2018-08-23T11:53:53.677Z,5.03
2018-08-23T11:56:23.557Z,5.42
2018-08-23T11:58:53.093Z,5.97
2018-08-23T12:01:22.430Z,5.58
2018-08-23T12:03:51.839Z,5.15
2018-08-23T12:06:21.615Z,5.85
2018-08-23T12:08:51.020Z,5.40
2018-08-23T12:11:20.958Z,4.60
2018-08-23T12:13:51.500Z,4.80
2018-08-23T12:16:21.279Z,6.15
2018-08-23T12:18:51.041Z,5.12
2018-08-23T12:21:21.240Z,4.33
2018-08-23T12:23:50.961Z,4.17
2018-08-23T12:26:20.825Z,4.03
2018-08-23T12:28:55.468Z,4.33
2018-08-23T12:31:25.270Z,4.45
2018-08-23T12:33:54.832Z,4.10
2018-08-23T12:36:29.445Z,4.35
2018-08-23T12:39:04.006Z,6.25
2018-08-23T12:41:39.057Z,4.60
2018-08-23T12:44:08.524Z,11.05
2018-08-23T12:46:38.513Z,4.03
2018-08-23T12:49:08.109Z,3.87
2018-08-23T12:51:37.930Z,4.00
2018-08-23T12:54:07.606Z,4.45
2018-08-23T12:56:36.846Z,4.22
2018-08-23T12:59:06.272Z,5.35
2018-08-23T13:01:35.840Z,4.33
2018-08-23T13:04:06.707Z,3.75
2018-08-23T13:06:36.089Z,4.45
2018-08-23T13:09:06.552Z,3.67
2018-08-23T13:11:35.723Z,4.50
2018-08-23T13:14:05.094Z,4.62
2018-08-23T13:16:34.165Z,4.67
2018-08-23T13:19:03.836Z,4.37
2018-08-23T13:21:33.426Z,5.05
2018-08-23T13:24:03.288Z,4.85
2018-08-23T13:26:38.203Z,4.92
2018-08-23T13:29:07.512Z,5.00
2018-08-23T13:31:36.904Z,4.92
2018-08-23T13:34:06.939Z,4.80
2018-08-23T13:36:39.152Z,5.08
2018-08-23T13:39:10.620Z,4.87
2018-08-23T13:41:39.819Z,5.40
2018-08-23T13:44:09.108Z,5.28
2018-08-23T13:46:38.842Z,5.72
2018-08-23T13:49:08.064Z,4.67
2018-08-23T13:51:37.504Z,4.87
2018-08-23T13:54:06.956Z,4.60
2018-08-23T13:56:36.464Z,4.97
2018-08-23T13:59:05.929Z,4.75
2018-08-23T14:01:35.676Z,5.10
2018-08-23T14:04:04.999Z,6.33
2018-08-23T14:06:34.315Z,7.87
2018-08-23T14:09:05.341Z,5.37
2018-08-23T14:11:34.689Z,6.58
2018-08-23T14:14:03.941Z,10.68
2018-08-23T14:16:34.197Z,11.50
2018-08-23T14:19:04.518Z,8.73
2018-08-23T14:21:33.838Z,5.75
2018-08-23T14:24:03.523Z,6.00
2018-08-23T14:26:33.305Z,6.00
2018-08-23T14:29:02.553Z,7.55
2018-08-23T14:31:31.731Z,7.83
2018-08-23T14:34:01.048Z,5.80
2018-08-23T14:36:30.059Z,6.45
2018-08-23T14:38:59.740Z,6.72
2018-08-23T14:41:29.192Z,7.05
2018-08-23T14:43:58.582Z,7.70
2018-08-23T14:46:32.955Z,7.60
2018-08-23T14:49:02.399Z,9.68
2018-08-23T14:51:31.580Z,7.80
2018-08-23T14:54:00.628Z,7.70
2018-08-23T14:56:35.168Z,10.25
2018-08-23T14:59:04.397Z,8.93
2018-08-23T15:01:33.375Z,9.43
2018-08-23T15:04:02.478Z,10.15
2018-08-23T15:06:31.465Z,9.03
2018-08-23T15:09:00.538Z,10.13
2018-08-23T15:11:29.866Z,11.45
2018-08-23T15:13:58.894Z,8.58
2018-08-23T15:16:27.826Z,8.70
2018-08-23T15:18:56.807Z,9.03
2018-08-23T15:21:25.810Z,9.78
2018-08-23T15:23:54.994Z,9.85
2018-08-23T15:26:24.562Z,13.00
2018-08-23T15:28:53.470Z,12.80
2018-08-23T15:31:22.700Z,12.93
2018-08-23T15:33:51.596Z,11.75
2018-08-23T15:36:20.762Z,13.22
2018-08-23T15:38:50.085Z,10.18
2018-08-23T15:41:19.089Z,9.23
2018-08-23T15:43:48.240Z,11.15
2018-08-23T15:46:17.188Z,14.98
2018-08-23T15:48:46.496Z,10.13
2018-08-23T15:51:15.412Z,10.53
2018-08-23T15:53:44.379Z,12.15
2018-08-23T15:56:13.283Z,15.38
2018-08-23T15:58:42.243Z,12.73
2018-08-23T16:01:11.201Z,13.48
2018-08-23T16:03:40.287Z,10.58
2018-08-23T16:06:10.507Z,13.60
2018-08-23T16:08:44.661Z,10.18
2018-08-23T16:11:14.425Z,12.78
2018-08-23T16:13:43.375Z,10.98
2018-08-23T16:16:17.772Z,9.55
2018-08-23T16:18:51.837Z,12.10
2018-08-23T16:21:25.953Z,10.70
2018-08-23T16:23:55.087Z,11.60
2018-08-23T16:26:24.032Z,10.38
2018-08-23T16:28:52.865Z,11.05
2018-08-23T16:31:21.923Z,15.65
2018-08-23T16:33:51.090Z,12.23
2018-08-23T16:36:20.017Z,13.53
2018-08-23T16:38:49.013Z,11.73
2018-08-23T16:41:17.840Z,10.40
2018-08-23T16:43:46.675Z,11.90
2018-08-23T16:46:16.352Z,9.43
2018-08-23T16:48:45.291Z,10.70
2018-08-23T16:51:14.463Z,12.43
2018-08-23T16:53:43.963Z,11.55
2018-08-23T16:56:13.242Z,12.53
2018-08-23T16:58:42.362Z,13.38
2018-08-23T17:01:11.127Z,11.43
2018-08-23T17:03:40.032Z,12.03
2018-08-23T17:06:09.028Z,10.35
2018-08-23T17:08:37.837Z,9.85
2018-08-23T17:11:06.686Z,15.48
2018-08-23T17:13:36.483Z,12.75
2018-08-23T17:16:11.816Z,15.85
2018-08-23T17:18:40.978Z,14.90
2018-08-23T17:21:09.926Z,12.50
2018-08-23T17:23:39.058Z,11.80
2018-08-23T17:26:08.897Z,13.47
2018-08-23T17:28:37.778Z,11.90
2018-08-23T17:31:06.746Z,11.17
2018-08-23T17:33:35.634Z,9.93
2018-08-23T17:36:05.087Z,16.37
2018-08-23T17:38:34.158Z,11.37
2018-08-23T17:41:03.008Z,12.83
2018-08-23T17:43:32.028Z,11.67
2018-08-23T17:46:00.878Z,14.23
2018-08-23T17:48:29.836Z,12.17
2018-08-23T17:50:58.601Z,13.87
2018-08-23T17:53:27.408Z,13.07
2018-08-23T17:55:56.201Z,11.97
2018-08-23T17:58:25.276Z,11.80
2018-08-23T18:00:54.121Z,17.20
2018-08-23T18:03:23.072Z,12.47
2018-08-23T18:05:51.936Z,10.43
2018-08-23T18:08:21.917Z,11.20
2018-08-23T18:10:51.905Z,12.57
2018-08-23T18:13:21.712Z,10.37
2018-08-23T18:15:56.148Z,9.73
2018-08-23T18:18:25.980Z,11.87
2018-08-23T18:20:55.125Z,9.13
2018-08-23T18:23:24.521Z,14.27
2018-08-23T18:25:54.532Z,9.70
2018-08-23T18:28:24.359Z,9.90
2018-08-23T18:30:53.695Z,10.30
2018-08-23T18:33:23.052Z,12.87
2018-08-23T18:35:51.920Z,8.73
2018-08-23T18:38:20.757Z,11.90
2018-08-23T18:40:49.579Z,8.33
2018-08-23T18:43:18.381Z,11.33
2018-08-23T18:45:47.288Z,11.67
2018-08-23T18:48:16.159Z,11.13
2018-08-23T18:50:45.017Z,9.80
2018-08-23T18:53:13.860Z,12.43
2018-08-23T18:55:42.634Z,8.80
2018-08-23T18:58:11.576Z,8.40
2018-08-23T19:00:40.410Z,9.67
2018-08-23T19:03:09.289Z,9.70
2018-08-23T19:05:39.244Z,8.63
2018-08-23T19:08:08.140Z,7.10
2018-08-23T19:10:36.984Z,8.17
2018-08-23T19:13:06.031Z,8.60
2018-08-23T19:15:40.398Z,7.47
2018-08-23T19:18:09.406Z,7.57
2018-08-23T19:20:38.352Z,6.37
2018-08-23T19:23:07.413Z,7.47
2018-08-23T19:25:36.243Z,10.23
2018-08-23T19:28:05.068Z,7.23
2018-08-23T19:30:33.933Z,10.00
2018-08-23T19:33:03.391Z,9.73
2018-08-23T19:35:31.532Z,7.00
2018-08-23T19:38:00.367Z,7.70
2018-08-23T19:40:30.798Z,8.27
2018-08-23T19:43:01.741Z,9.70
2018-08-23T19:45:36.676Z,8.27
2018-08-23T19:48:07.260Z,7.30
2018-08-23T19:50:36.794Z,7.53
2018-08-23T19:53:06.037Z,6.97
2018-08-23T19:55:35.212Z,7.07
2018-08-23T19:58:05.491Z,7.33
2018-08-23T20:00:35.874Z,10.03
2018-08-23T20:03:04.865Z,6.90
2018-08-23T20:05:34.050Z,8.67
2018-08-23T20:08:02.913Z,6.10
2018-08-23T20:10:31.852Z,7.53
2018-08-23T20:13:00.695Z,8.63
2018-08-23T20:15:29.611Z,8.07
2018-08-23T20:17:58.410Z,8.83
2018-08-23T20:20:27.275Z,6.83
2018-08-23T20:22:56.455Z,7.57
2018-08-23T20:25:25.436Z,7.43
2018-08-23T20:27:56.996Z,6.73
2018-08-23T20:30:25.916Z,7.63
2018-08-23T20:32:54.763Z,6.53
2018-08-23T20:35:23.926Z,7.20
2018-08-23T20:37:53.376Z,6.77
2018-08-23T20:40:22.217Z,6.77
2018-08-23T20:42:51.082Z,7.43
2018-08-23T20:45:19.978Z,9.07
2018-08-23T20:47:48.797Z,7.17
2018-08-23T20:50:17.667Z,7.10
2018-08-23T20:52:46.568Z,12.63
2018-08-23T20:55:15.588Z,7.10
2018-08-23T20:57:44.432Z,8.70
2018-08-23T21:00:13.557Z,7.30
2018-08-23T21:02:42.307Z,6.17
2018-08-23T21:05:11.173Z,7.33
2018-08-23T21:07:40.265Z,8.60
2018-08-23T21:10:09.856Z,6.27
2018-08-23T21:12:39.762Z,8.17
2018-08-23T21:15:09.832Z,6.57
2018-08-23T21:17:39.083Z,8.47
2018-08-23T21:20:08.774Z,7.77
2018-08-23T21:22:38.230Z,5.80
2018-08-23T21:25:07.619Z,7.27
2018-08-23T21:27:37.850Z,6.17
2018-08-23T21:30:08.188Z,6.57
2018-08-23T21:32:37.823Z,6.47
2018-08-23T21:35:07.497Z,5.13
2018-08-23T21:37:36.916Z,6.17
2018-08-23T21:40:06.381Z,8.80
2018-08-23T21:42:36.608Z,4.13
2018-08-23T21:45:11.075Z,6.53
2018-08-23T21:47:40.573Z,6.07
2018-08-23T21:50:10.301Z,4.60
2018-08-23T21:52:40.110Z,4.57
2018-08-23T21:55:10.029Z,7.77
2018-08-23T21:57:39.815Z,4.20
2018-08-23T22:00:10.357Z,4.30
2018-08-23T22:02:39.821Z,4.70
2018-08-23T22:05:09.072Z,4.73
2018-08-23T22:07:38.760Z,4.83
2018-08-23T22:10:08.472Z,6.53
2018-08-23T22:12:38.050Z,5.70
2018-08-23T22:15:07.957Z,5.53
2018-08-23T22:17:37.637Z,5.57
2018-08-23T22:20:07.471Z,7.47
2018-08-23T22:22:36.710Z,4.90
2018-08-23T22:25:06.148Z,4.57
2018-08-23T22:27:35.724Z,6.87
2018-08-23T22:30:05.642Z,5.10
2018-08-23T22:32:35.434Z,4.73
2018-08-23T22:35:04.795Z,5.17
2018-08-23T22:37:34.166Z,6.87
2018-08-23T22:40:04.157Z,4.90
2018-08-23T22:42:34.738Z,7.03
2018-08-23T22:45:04.209Z,4.80
2018-08-23T22:47:33.456Z,5.13
2018-08-23T22:50:02.548Z,6.13
2018-08-23T22:52:31.752Z,7.50
2018-08-23T22:55:01.275Z,5.53
2018-08-23T22:57:30.585Z,6.90
2018-08-23T22:59:59.941Z,5.50
2018-08-23T23:02:44.324Z,6.03
2018-08-23T23:05:13.667Z,6.47
2018-08-23T23:07:42.905Z,6.53
2018-08-23T23:10:13.037Z,6.47
2018-08-23T23:12:42.900Z,6.53
2018-08-23T23:15:31.694Z,5.37
2018-08-23T23:18:01.120Z,4.83
2018-08-23T23:20:30.169Z,4.90
2018-08-23T23:22:59.383Z,5.17
2018-08-23T23:25:28.969Z,4.50
2018-08-23T23:27:58.711Z,3.93
2018-08-23T23:30:28.171Z,4.30
2018-08-23T23:32:57.694Z,3.80
2018-08-23T23:35:26.893Z,12.50
2018-08-23T23:37:55.948Z,5.07
2018-08-23T23:40:24.813Z,4.10
2018-08-23T23:42:53.746Z,3.93
2018-08-23T23:45:22.560Z,4.13
2018-08-23T23:47:51.437Z,3.67
2018-08-23T23:50:20.375Z,4.77
2018-08-23T23:52:50.233Z,3.63
2018-08-23T23:55:19.049Z,3.70
2018-08-23T23:57:47.951Z,6.17
